DAL962 KLAS-KSEA
Flight info
| Callsign | DAL962 |
|---|---|
| Flight time | N/A |
| Altitude | 38000 |
| Route | JOHKR5 KENNO OAL LOMIA LKV HAWKZ8 |
| Aircraft | B738/M-SDE2E3FGHIRWXY/LB1 |
Departure
| Time | 2026-04-30 14:54 |
|---|---|
| Airport | Harry Reid International Airport (KLAS) |
Arrival
| Time | N/A |
|---|---|
| Airport | Seattle–Tacoma International Airport (KSEA) |
| Time | Latitude | Longitude | Altitude | Speed | Heading |
|---|---|---|---|---|---|
| 2026-04-30 14:37 | 36.08205 | -115.14828 | 2104 ft | 0 kts | 67° |
| 2026-04-30 14:44 | 36.08204 | -115.14831 | 2104 ft | 2 kts | 67° |
| 2026-04-30 14:44 | 36.08198 | -115.14848 | 2104 ft | 1 kts | 67° |
| 2026-04-30 14:45 | 36.08194 | -115.14858 | 2105 ft | 2 kts | 61° |
| 2026-04-30 14:45 | 36.08184 | -115.14871 | 2106 ft | 2 kts | 33° |
| 2026-04-30 14:45 | 36.08171 | -115.14879 | 2106 ft | 2 kts | 11° |
| 2026-04-30 14:45 | 36.08157 | -115.14879 | 2106 ft | 2 kts | 348° |
| 2026-04-30 14:46 | 36.08149 | -115.14876 | 2107 ft | 1 kts | 334° |
| 2026-04-30 14:46 | 36.08145 | -115.14874 | 2107 ft | 0 kts | 335° |
| 2026-04-30 14:47 | 36.08168 | -115.14911 | 2107 ft | 11 kts | 279° |
| 2026-04-30 14:48 | 36.08162 | -115.15048 | 2113 ft | 17 kts | 265° |
| 2026-04-30 14:48 | 36.08155 | -115.15174 | 2118 ft | 12 kts | 268° |
| 2026-04-30 14:48 | 36.08155 | -115.15288 | 2122 ft | 12 kts | 271° |
| 2026-04-30 14:48 | 36.08159 | -115.15388 | 2125 ft | 12 kts | 273° |
| 2026-04-30 14:49 | 36.08161 | -115.15508 | 2127 ft | 15 kts | 271° |
| 2026-04-30 14:49 | 36.08163 | -115.15652 | 2133 ft | 17 kts | 270° |
| 2026-04-30 14:49 | 36.08162 | -115.15814 | 2139 ft | 19 kts | 269° |
| 2026-04-30 14:49 | 36.08162 | -115.15957 | 2145 ft | 13 kts | 270° |
| 2026-04-30 14:50 | 36.08105 | -115.16136 | 2150 ft | 15 kts | 207° |
| 2026-04-30 14:50 | 36.08018 | -115.16187 | 2156 ft | 11 kts | 205° |
| 2026-04-30 14:51 | 36.07826 | -115.16297 | 2164 ft | 14 kts | 205° |
| 2026-04-30 14:51 | 36.07745 | -115.16343 | 2167 ft | 12 kts | 205° |
| 2026-04-30 14:51 | 36.07487 | -115.16490 | 2178 ft | 20 kts | 205° |
| 2026-04-30 14:52 | 36.07394 | -115.16563 | 2182 ft | 13 kts | 243° |
| 2026-04-30 14:52 | 36.07394 | -115.16625 | 2184 ft | 0 kts | 290° |
| 2026-04-30 14:52 | 36.07404 | -115.16657 | 2185 ft | 9 kts | 290° |
| 2026-04-30 14:53 | 36.07492 | -115.16709 | 2183 ft | 0 kts | 24° |
| 2026-04-30 14:53 | 36.07520 | -115.16693 | 2182 ft | 23 kts | 24° |
| 2026-04-30 14:54 | 36.08752 | -115.15989 | 2132 ft | 163 kts | 25° |
| 2026-04-30 14:54 | 36.11015 | -115.14738 | 3466 ft | 175 kts | 13° |
| 2026-04-30 14:55 | 36.13257 | -115.15878 | 4488 ft | 197 kts | 309° |
| 2026-04-30 14:55 | 36.13891 | -115.17441 | 4879 ft | 214 kts | 284° |
| 2026-04-30 14:55 | 36.13218 | -115.21292 | 5690 ft | 249 kts | 249° |
| 2026-04-30 14:56 | 36.11791 | -115.25524 | 6622 ft | 280 kts | 250° |
| 2026-04-30 14:56 | 36.09584 | -115.29555 | 7951 ft | 295 kts | 213° |
| 2026-04-30 14:57 | 36.07749 | -115.30660 | 8752 ft | 295 kts | 201° |
| 2026-04-30 14:57 | 36.03871 | -115.32385 | 10231 ft | 301 kts | 200° |
| 2026-04-30 14:58 | 35.99793 | -115.34288 | 11108 ft | 328 kts | 202° |
| 2026-04-30 14:58 | 35.97630 | -115.35334 | 11506 ft | 342 kts | 202° |
| 2026-04-30 14:58 | 35.93087 | -115.37529 | 12752 ft | 355 kts | 203° |
| 2026-04-30 14:59 | 35.89022 | -115.40871 | 14034 ft | 358 kts | 233° |
| 2026-04-30 15:00 | 35.86903 | -115.49489 | 15923 ft | 360 kts | 271° |
| 2026-04-30 15:00 | 35.87203 | -115.55634 | 17150 ft | 364 kts | 278° |
| 2026-04-30 15:01 | 35.87689 | -115.61873 | 18300 ft | 370 kts | 277° |
| 2026-04-30 15:01 | 35.87908 | -115.65002 | 18854 ft | 373 kts | 277° |
| 2026-04-30 15:01 | 35.88301 | -115.71423 | 19912 ft | 380 kts | 276° |
| 2026-04-30 15:02 | 35.88486 | -115.74660 | 20471 ft | 382 kts | 276° |
| 2026-04-30 15:02 | 35.88670 | -115.77933 | 20968 ft | 386 kts | 277° |
| 2026-04-30 15:03 | 35.89358 | -115.87907 | 22446 ft | 392 kts | 283° |
| 2026-04-30 15:03 | 35.91116 | -115.94169 | 23408 ft | 389 kts | 301° |
| 2026-04-30 15:04 | 35.94224 | -115.99647 | 24263 ft | 392 kts | 313° |
| 2026-04-30 15:04 | 35.99964 | -116.06908 | 25521 ft | 398 kts | 317° |
| 2026-04-30 15:05 | 36.05944 | -116.14125 | 26714 ft | 405 kts | 317° |
| 2026-04-30 15:06 | 36.09956 | -116.19044 | 27429 ft | 410 kts | 317° |
| 2026-04-30 15:06 | 36.13982 | -116.24023 | 28180 ft | 414 kts | 317° |
| 2026-04-30 15:07 | 36.18063 | -116.29089 | 28868 ft | 419 kts | 317° |
| 2026-04-30 15:07 | 36.22177 | -116.34208 | 29589 ft | 422 kts | 317° |
| 2026-04-30 15:08 | 36.26328 | -116.39383 | 30174 ft | 428 kts | 316° |
| 2026-04-30 15:08 | 36.32720 | -116.47201 | 31016 ft | 436 kts | 318° |
| 2026-04-30 15:09 | 36.37122 | -116.52406 | 31558 ft | 441 kts | 317° |
| 2026-04-30 15:09 | 36.41595 | -116.57697 | 32153 ft | 443 kts | 317° |
| 2026-04-30 15:10 | 36.46029 | -116.62943 | 32968 ft | 440 kts | 317° |
| 2026-04-30 15:11 | 36.55030 | -116.73155 | 34386 ft | 436 kts | 317° |
| 2026-04-30 15:11 | 36.59515 | -116.78230 | 34967 ft | 436 kts | 317° |
| 2026-04-30 15:12 | 36.66196 | -116.85836 | 36046 ft | 431 kts | 317° |
| 2026-04-30 15:13 | 36.70655 | -116.90839 | 36516 ft | 431 kts | 319° |
| 2026-04-30 15:14 | 36.80642 | -116.98973 | 37509 ft | 430 kts | 330° |
| 2026-04-30 15:14 | 36.88600 | -117.04151 | 38118 ft | 429 kts | 331° |
| 2026-04-30 15:17 | 37.12670 | -117.19755 | 38149 ft | 433 kts | 331° |
| 2026-04-30 15:19 | 37.34002 | -117.33723 | 38149 ft | 431 kts | 331° |